sensor_id;sensor_type;location;lat;lon;timestamp;pressure;altitude;pressure_sealevel;temperature;humidity
13124;BME280;6627;50.920;12.050;2023-12-04T00:00:05;98239.69;;;4.58;46.93
13124;BME280;6627;50.920;12.050;2023-12-04T00:02:33;97993.13;;;3.34;47.63
13124;BME280;6627;50.920;12.050;2023-12-04T00:05:01;98149.34;;;3.78;48.82
13124;BME280;6627;50.920;12.050;2023-12-04T00:07:28;98178.75;;;3.99;47.75
13124;BME280;6627;50.920;12.050;2023-12-04T00:09:55;98078.19;;;3.26;49.14
13124;BME280;6627;50.920;12.050;2023-12-04T00:12:23;98124.22;;;3.18;49.76
13124;BME280;6627;50.920;12.050;2023-12-04T00:14:50;98160.91;;;3.33;49.80
13124;BME280;6627;50.920;12.050;2023-12-04T00:17:17;98141.63;;;3.26;49.94
13124;BME280;6627;50.920;12.050;2023-12-04T00:19:44;98221.38;;;3.49;50.35
13124;BME280;6627;50.920;12.050;2023-12-04T00:22:14;98210.66;;;3.19;51.34
13124;BME280;6627;50.920;12.050;2023-12-04T00:24:41;98260.47;;;3.71;49.85
13124;BME280;6627;50.920;12.050;2023-12-04T00:27:08;98156.34;;;3.39;49.58
13124;BME280;6627;50.920;12.050;2023-12-04T00:29:36;98270.38;;;3.80;49.86
13124;BME280;6627;50.920;12.050;2023-12-04T00:32:05;98170.78;;;3.58;49.57
13124;BME280;6627;50.920;12.050;2023-12-04T00:34:32;98168.09;;;3.58;49.70
13124;BME280;6627;50.920;12.050;2023-12-04T00:36:59;98245.22;;;3.82;49.77
13124;BME280;6627;50.920;12.050;2023-12-04T00:39:28;98253.47;;;4.11;49.17
13124;BME280;6627;50.920;12.050;2023-12-04T00:41:55;98151.78;;;3.54;49.65
13124;BME280;6627;50.920;12.050;2023-12-04T00:44:22;98184.69;;;3.75;49.23
13124;BME280;6627;50.920;12.050;2023-12-04T00:46:50;98081.19;;;3.15;49.96
13124;BME280;6627;50.920;12.050;2023-12-04T00:49:17;98324.47;;;4.39;49.30
13124;BME280;6627;50.920;12.050;2023-12-04T00:51:44;98300.28;;;4.59;48.52
13124;BME280;6627;50.920;12.050;2023-12-04T00:54:11;98211.41;;;4.21;48.46
13124;BME280;6627;50.920;12.050;2023-12-04T00:56:41;98144.22;;;3.92;48.05
13124;BME280;6627;50.920;12.050;2023-12-04T00:59:09;98159.22;;;3.88;49.01
13124;BME280;6627;50.920;12.050;2023-12-04T01:01:37;98258.44;;;4.63;47.75
13124;BME280;6627;50.920;12.050;2023-12-04T01:04:04;98190.50;;;4.18;47.94
13124;BME280;6627;50.920;12.050;2023-12-04T01:06:32;98122.03;;;3.76;48.64
13124;BME280;6627;50.920;12.050;2023-12-04T01:08:59;98199.03;;;4.30;48.04
13124;BME280;6627;50.920;12.050;2023-12-04T01:11:28;98141.03;;;3.75;49.26
13124;BME280;6627;50.920;12.050;2023-12-04T01:13:56;98077.63;;;3.60;48.68
13124;BME280;6627;50.920;12.050;2023-12-04T01:16:24;98128.50;;;3.60;48.97
13124;BME280;6627;50.920;12.050;2023-12-04T01:18:51;98032.72;;;3.26;48.74
13124;BME280;6627;50.920;12.050;2023-12-04T01:21:19;98246.75;;;4.23;48.85
13124;BME280;6627;50.920;12.050;2023-12-04T01:23:46;98133.81;;;3.75;48.43
13124;BME280;6627;50.920;12.050;2023-12-04T01:26:13;98193.78;;;3.95;49.01
13124;BME280;6627;50.920;12.050;2023-12-04T01:28:41;98110.81;;;3.54;49.43
13124;BME280;6627;50.920;12.050;2023-12-04T01:31:09;98224.81;;;4.16;49.03
13124;BME280;6627;50.920;12.050;2023-12-04T01:33:37;98030.03;;;3.32;48.58
13124;BME280;6627;50.920;12.050;2023-12-04T01:36:05;98075.00;;;3.35;49.29
13124;BME280;6627;50.920;12.050;2023-12-04T01:38:32;98089.94;;;3.56;48.95
13124;BME280;6627;50.920;12.050;2023-12-04T01:41:00;98141.84;;;3.86;49.07
13124;BME280;6627;50.920;12.050;2023-12-04T01:43:27;98086.44;;;3.66;48.70
13124;BME280;6627;50.920;12.050;2023-12-04T01:45:57;98048.19;;;3.55;48.79
13124;BME280;6627;50.920;12.050;2023-12-04T01:48:29;98095.81;;;3.58;49.58
13124;BME280;6627;50.920;12.050;2023-12-04T01:51:00;98129.50;;;3.79;49.06
13124;BME280;6627;50.920;12.050;2023-12-04T01:53:32;98179.53;;;4.04;49.04
13124;BME280;6627;50.920;12.050;2023-12-04T01:55:59;98178.94;;;4.28;48.02
13124;BME280;6627;50.920;12.050;2023-12-04T01:58:26;98070.56;;;3.85;48.01
13124;BME280;6627;50.920;12.050;2023-12-04T02:00:54;98116.13;;;3.79;49.20
13124;BME280;6627;50.920;12.050;2023-12-04T02:03:21;98134.28;;;3.98;48.93
13124;BME280;6627;50.920;12.050;2023-12-04T02:05:51;98085.59;;;3.75;48.88
13124;BME280;6627;50.920;12.050;2023-12-04T02:08:18;98077.38;;;3.36;49.92
13124;BME280;6627;50.920;12.050;2023-12-04T02:10:46;98087.75;;;3.73;48.59
13124;BME280;6627;50.920;12.050;2023-12-04T02:13:13;98166.94;;;4.10;49.12
13124;BME280;6627;50.920;12.050;2023-12-04T02:15:40;98129.19;;;4.01;48.72
13124;BME280;6627;50.920;12.050;2023-12-04T02:18:08;98240.19;;;4.60;48.40
13124;BME280;6627;50.920;12.050;2023-12-04T02:20:35;98260.44;;;5.02;47.12
13124;BME280;6627;50.920;12.050;2023-12-04T02:23:04;98055.53;;;3.94;47.98
13124;BME280;6627;50.920;12.050;2023-12-04T02:25:32;98077.94;;;4.18;46.60
13124;BME280;6627;50.920;12.050;2023-12-04T02:28:02;98067.09;;;3.94;47.58
13124;BME280;6627;50.920;12.050;2023-12-04T02:30:32;98256.41;;;4.99;46.94
13124;BME280;6627;50.920;12.050;2023-12-04T02:33:05;98193.84;;;5.09;46.27
13124;BME280;6627;50.920;12.050;2023-12-04T02:35:36;98219.47;;;5.25;45.62
13124;BME280;6627;50.920;12.050;2023-12-04T02:38:05;98178.75;;;5.18;45.95
13124;BME280;6627;50.920;12.050;2023-12-04T02:40:35;98173.63;;;5.17;45.63
13124;BME280;6627;50.920;12.050;2023-12-04T02:43:02;97867.69;;;3.66;46.45
13124;BME280;6627;50.920;12.050;2023-12-04T02:45:29;98000.34;;;4.03;46.81
13124;BME280;6627;50.920;12.050;2023-12-04T02:47:56;98112.34;;;4.50;46.64
13124;BME280;6627;50.920;12.050;2023-12-04T02:50:24;97873.66;;;3.53;47.01
13124;BME280;6627;50.920;12.050;2023-12-04T02:52:51;97875.97;;;3.20;48.24
13124;BME280;6627;50.920;12.050;2023-12-04T02:55:18;97861.06;;;2.99;48.74
13124;BME280;6627;50.920;12.050;2023-12-04T02:57:47;97827.69;;;2.86;48.61
13124;BME280;6627;50.920;12.050;2023-12-04T03:00:18;97951.84;;;3.45;48.34
13124;BME280;6627;50.920;12.050;2023-12-04T03:02:46;97893.22;;;2.73;50.13
13124;BME280;6627;50.920;12.050;2023-12-04T03:05:13;97834.22;;;2.44;50.03
13124;BME280;6627;50.920;12.050;2023-12-04T03:07:40;98139.16;;;3.70;49.56
13124;BME280;6627;50.920;12.050;2023-12-04T03:10:08;98042.28;;;3.53;48.98
13124;BME280;6627;50.920;12.050;2023-12-04T03:12:35;97939.13;;;3.16;48.85
13124;BME280;6627;50.920;12.050;2023-12-04T03:15:05;97987.22;;;3.26;49.90
13124;BME280;6627;50.920;12.050;2023-12-04T03:17:32;98001.16;;;3.28;49.59
13124;BME280;6627;50.920;12.050;2023-12-04T03:19:59;98052.97;;;3.58;49.77
13124;BME280;6627;50.920;12.050;2023-12-04T03:22:27;97972.28;;;3.15;49.57
13124;BME280;6627;50.920;12.050;2023-12-04T03:24:53;98001.91;;;3.39;49.51
13124;BME280;6627;50.920;12.050;2023-12-04T03:27:20;97990.72;;;3.32;49.26
13124;BME280;6627;50.920;12.050;2023-12-04T03:29:47;97948.22;;;3.05;49.82
13124;BME280;6627;50.920;12.050;2023-12-04T03:32:16;98011.84;;;3.34;49.46
13124;BME280;6627;50.920;12.050;2023-12-04T03:34:43;98004.09;;;3.32;49.35
13124;BME280;6627;50.920;12.050;2023-12-04T03:37:10;98046.59;;;3.44;49.88
13124;BME280;6627;50.920;12.050;2023-12-04T03:39:38;98021.94;;;3.57;48.61
13124;BME280;6627;50.920;12.050;2023-12-04T03:42:05;98062.59;;;3.74;49.14
13124;BME280;6627;50.920;12.050;2023-12-04T03:44:32;98067.34;;;3.88;48.84
13124;BME280;6627;50.920;12.050;2023-12-04T03:46:59;97957.28;;;3.24;49.01
13124;BME280;6627;50.920;12.050;2023-12-04T03:49:29;98072.19;;;3.86;49.11
13124;BME280;6627;50.920;12.050;2023-12-04T03:51:56;98073.47;;;3.98;49.05
13124;BME280;6627;50.920;12.050;2023-12-04T03:54:23;97962.59;;;3.35;49.34
13124;BME280;6627;50.920;12.050;2023-12-04T03:56:50;98181.53;;;4.48;49.04
13124;BME280;6627;50.920;12.050;2023-12-04T03:59:17;98041.09;;;3.95;48.87
13124;BME280;6627;50.920;12.050;2023-12-04T04:01:45;98062.41;;;4.15;48.73
13124;BME280;6627;50.920;12.050;2023-12-04T04:04:12;98005.00;;;3.82;48.72
13124;BME280;6627;50.920;12.050;2023-12-04T04:06:41;97983.38;;;3.63;49.18
13124;BME280;6627;50.920;12.050;2023-12-04T04:09:08;98037.31;;;3.96;48.21
13124;BME280;6627;50.920;12.050;2023-12-04T04:11:35;97984.34;;;3.83;48.73
13124;BME280;6627;50.920;12.050;2023-12-04T04:14:02;98013.94;;;4.12;47.68
13124;BME280;6627;50.920;12.050;2023-12-04T04:16:29;97958.69;;;3.76;48.45
13124;BME280;6627;50.920;12.050;2023-12-04T04:18:56;98096.63;;;4.34;48.28
13124;BME280;6627;50.920;12.050;2023-12-04T04:21:23;97999.22;;;4.09;47.66
13124;BME280;6627;50.920;12.050;2023-12-04T04:23:52;97844.94;;;3.14;49.04
13124;BME280;6627;50.920;12.050;2023-12-04T04:26:19;97913.91;;;3.33;49.15
13124;BME280;6627;50.920;12.050;2023-12-04T04:28:46;97919.22;;;3.43;48.96
13124;BME280;6627;50.920;12.050;2023-12-04T04:31:14;97893.03;;;3.35;49.02
13124;BME280;6627;50.920;12.050;2023-12-04T04:33:41;97961.16;;;3.68;48.72
13124;BME280;6627;50.920;12.050;2023-12-04T04:36:10;98044.22;;;4.07;48.51
13124;BME280;6627;50.920;12.050;2023-12-04T04:38:39;97849.75;;;3.17;48.77
13124;BME280;6627;50.920;12.050;2023-12-04T04:41:13;97959.53;;;3.72;48.55
13124;BME280;6627;50.920;12.050;2023-12-04T04:43:41;97931.53;;;3.39;49.61
13124;BME280;6627;50.920;12.050;2023-12-04T04:46:08;97919.59;;;3.75;48.18
13124;BME280;6627;50.920;12.050;2023-12-04T04:48:36;97967.75;;;3.86;48.56
13124;BME280;6627;50.920;12.050;2023-12-04T04:51:04;97969.34;;;3.87;48.29
13124;BME280;6627;50.920;12.050;2023-12-04T04:53:31;97936.25;;;3.62;49.04
13124;BME280;6627;50.920;12.050;2023-12-04T04:55:58;97819.13;;;3.44;47.63
13124;BME280;6627;50.920;12.050;2023-12-04T04:58:27;97937.81;;;3.73;48.68
13124;BME280;6627;50.920;12.050;2023-12-04T05:00:54;97973.56;;;4.03;48.07
13124;BME280;6627;50.920;12.050;2023-12-04T05:03:21;97835.28;;;3.28;48.50
13124;BME280;6627;50.920;12.050;2023-12-04T05:05:48;97929.84;;;3.58;48.69
13124;BME280;6627;50.920;12.050;2023-12-04T05:08:15;97987.63;;;4.19;48.25
13124;BME280;6627;50.920;12.050;2023-12-04T05:10:42;97965.88;;;3.86;48.52
13124;BME280;6627;50.920;12.050;2023-12-04T05:13:10;97988.97;;;4.21;47.92
13124;BME280;6627;50.920;12.050;2023-12-04T05:15:38;97943.66;;;3.86;48.26
13124;BME280;6627;50.920;12.050;2023-12-04T05:18:05;97949.19;;;4.39;46.74
13124;BME280;6627;50.920;12.050;2023-12-04T05:20:32;98046.53;;;4.68;47.16
13124;BME280;6627;50.920;12.050;2023-12-04T05:23:01;98008.25;;;4.63;47.21
13124;BME280;6627;50.920;12.050;2023-12-04T05:25:28;97907.28;;;4.14;47.38
13124;BME280;6627;50.920;12.050;2023-12-04T05:27:55;97920.44;;;4.10;47.92
13124;BME280;6627;50.920;12.050;2023-12-04T05:30:22;97987.13;;;4.12;47.58
13124;BME280;6627;50.920;12.050;2023-12-04T05:32:51;97775.34;;;3.24;48.20
13124;BME280;6627;50.920;12.050;2023-12-04T05:35:18;97973.22;;;4.10;48.99
13124;BME280;6627;50.920;12.050;2023-12-04T05:37:45;97879.34;;;3.91;47.65
13124;BME280;6627;50.920;12.050;2023-12-04T05:40:14;97796.06;;;3.48;47.91
13124;BME280;6627;50.920;12.050;2023-12-04T05:42:41;97826.09;;;3.40;48.26
13124;BME280;6627;50.920;12.050;2023-12-04T05:45:09;97864.63;;;3.44;48.90
13124;BME280;6627;50.920;12.050;2023-12-04T05:47:37;98058.97;;;4.54;48.35
13124;BME280;6627;50.920;12.050;2023-12-04T05:50:07;97942.38;;;4.17;47.60
13124;BME280;6627;50.920;12.050;2023-12-04T05:52:35;97831.00;;;3.72;47.35
13124;BME280;6627;50.920;12.050;2023-12-04T05:55:02;97868.63;;;3.91;47.32
13124;BME280;6627;50.920;12.050;2023-12-04T05:57:30;97760.91;;;3.25;48.30
13124;BME280;6627;50.920;12.050;2023-12-04T05:59:57;97790.91;;;3.17;49.13
13124;BME280;6627;50.920;12.050;2023-12-04T06:02:25;97881.91;;;3.62;48.98
13124;BME280;6627;50.920;12.050;2023-12-04T06:04:54;97761.56;;;3.02;49.19
13124;BME280;6627;50.920;12.050;2023-12-04T06:07:22;97789.91;;;3.03;49.25
13124;BME280;6627;50.920;12.050;2023-12-04T06:09:50;97821.63;;;3.25;48.78
13124;BME280;6627;50.920;12.050;2023-12-04T06:12:17;97826.75;;;3.16;49.53
13124;BME280;6627;50.920;12.050;2023-12-04T06:14:44;97829.91;;;3.28;49.23
13124;BME280;6627;50.920;12.050;2023-12-04T06:17:11;97800.94;;;3.41;48.17
13124;BME280;6627;50.920;12.050;2023-12-04T06:19:38;97685.22;;;2.81;48.60
13124;BME280;6627;50.920;12.050;2023-12-04T06:22:06;97777.03;;;3.15;48.80
13124;BME280;6627;50.920;12.050;2023-12-04T06:24:36;97860.84;;;3.45;48.87
13124;BME280;6627;50.920;12.050;2023-12-04T06:27:04;97954.59;;;4.28;47.79
13124;BME280;6627;50.920;12.050;2023-12-04T06:29:37;97822.63;;;3.78;47.58
13124;BME280;6627;50.920;12.050;2023-12-04T06:32:06;97784.25;;;3.54;47.72
13124;BME280;6627;50.920;12.050;2023-12-04T06:34:35;97771.44;;;3.51;47.65
13124;BME280;6627;50.920;12.050;2023-12-04T06:37:03;97717.66;;;3.08;48.47
13124;BME280;6627;50.920;12.050;2023-12-04T06:39:38;97799.72;;;3.62;47.62
13124;BME280;6627;50.920;12.050;2023-12-04T06:42:07;97833.41;;;4.02;46.96
13124;BME280;6627;50.920;12.050;2023-12-04T06:44:38;97795.88;;;3.78;47.48
13124;BME280;6627;50.920;12.050;2023-12-04T06:47:16;97864.53;;;3.98;47.72
13124;BME280;6627;50.920;12.050;2023-12-04T06:49:44;97692.03;;;3.02;48.17
13124;BME280;6627;50.920;12.050;2023-12-04T06:52:11;97875.47;;;4.02;47.83
13124;BME280;6627;50.920;12.050;2023-12-04T06:54:40;97818.72;;;4.00;46.92
13124;BME280;6627;50.920;12.050;2023-12-04T06:57:07;97726.97;;;3.55;46.87
13124;BME280;6627;50.920;12.050;2023-12-04T06:59:35;97641.91;;;3.18;47.07
13124;BME280;6627;50.920;12.050;2023-12-04T07:02:02;97674.16;;;3.32;47.38
13124;BME280;6627;50.920;12.050;2023-12-04T07:04:32;97747.97;;;3.38;48.03
13124;BME280;6627;50.920;12.050;2023-12-04T07:07:00;97824.19;;;3.90;47.48
13124;BME280;6627;50.920;12.050;2023-12-04T07:09:30;97786.16;;;3.88;46.79
13124;BME280;6627;50.920;12.050;2023-12-04T07:11:59;97922.38;;;4.39;47.39
13124;BME280;6627;50.920;12.050;2023-12-04T07:14:26;97729.13;;;3.53;47.58
13124;BME280;6627;50.920;12.050;2023-12-04T07:16:54;97866.91;;;4.05;47.69
13124;BME280;6627;50.920;12.050;2023-12-04T07:19:21;97827.88;;;3.94;47.18
13124;BME280;6627;50.920;12.050;2023-12-04T07:21:49;97910.63;;;4.35;47.49
13124;BME280;6627;50.920;12.050;2023-12-04T07:24:16;97751.34;;;3.88;46.67
13124;BME280;6627;50.920;12.050;2023-12-04T07:26:43;97839.19;;;4.20;46.79
13124;BME280;6627;50.920;12.050;2023-12-04T07:29:11;97803.16;;;4.02;46.74
13124;BME280;6627;50.920;12.050;2023-12-04T07:31:41;97715.81;;;3.77;46.53
13124;BME280;6627;50.920;12.050;2023-12-04T07:34:09;97822.00;;;3.92;47.59
13124;BME280;6627;50.920;12.050;2023-12-04T07:36:36;97661.88;;;3.31;46.97
13124;BME280;6627;50.920;12.050;2023-12-04T07:39:03;97880.16;;;4.20;47.36
13124;BME280;6627;50.920;12.050;2023-12-04T07:41:32;97903.00;;;4.47;46.87
13124;BME280;6627;50.920;12.050;2023-12-04T07:43:59;97864.91;;;4.50;46.22
13124;BME280;6627;50.920;12.050;2023-12-04T07:46:28;97853.25;;;4.36;46.59
13124;BME280;6627;50.920;12.050;2023-12-04T07:48:55;97821.09;;;4.36;46.46
13124;BME280;6627;50.920;12.050;2023-12-04T07:51:22;97955.63;;;5.01;45.63
13124;BME280;6627;50.920;12.050;2023-12-04T07:53:49;97818.84;;;4.48;45.77
13124;BME280;6627;50.920;12.050;2023-12-04T07:56:17;97840.84;;;4.45;46.43
13124;BME280;6627;50.920;12.050;2023-12-04T07:58:44;97889.88;;;4.74;46.09
13124;BME280;6627;50.920;12.050;2023-12-04T08:01:11;97919.00;;;4.86;45.64
13124;BME280;6627;50.920;12.050;2023-12-04T08:03:39;97921.59;;;4.96;45.49
13124;BME280;6627;50.920;12.050;2023-12-04T08:06:06;97921.34;;;4.93;45.56
13124;BME280;6627;50.920;12.050;2023-12-04T08:08:34;97953.00;;;4.96;46.49
13124;BME280;6627;50.920;12.050;2023-12-04T08:11:02;98015.84;;;5.43;45.88
13124;BME280;6627;50.920;12.050;2023-12-04T08:13:29;97960.53;;;5.42;45.18
13124;BME280;6627;50.920;12.050;2023-12-04T08:15:56;98119.41;;;6.07;45.58
13124;BME280;6627;50.920;12.050;2023-12-04T08:18:24;97887.84;;;5.57;44.41
13124;BME280;6627;50.920;12.050;2023-12-04T08:20:52;97890.88;;;5.31;45.72
13124;BME280;6627;50.920;12.050;2023-12-04T08:23:20;97864.59;;;5.28;44.64
13124;BME280;6627;50.920;12.050;2023-12-04T08:25:47;97873.75;;;5.27;45.41
13124;BME280;6627;50.920;12.050;2023-12-04T08:28:14;97883.88;;;5.30;44.99
13124;BME280;6627;50.920;12.050;2023-12-04T08:30:41;97789.38;;;4.91;44.79
13124;BME280;6627;50.920;12.050;2023-12-04T08:33:09;97852.69;;;5.35;44.34
13124;BME280;6627;50.920;12.050;2023-12-04T08:35:36;97852.44;;;5.36;44.75
13124;BME280;6627;50.920;12.050;2023-12-04T08:38:04;97807.84;;;5.16;44.53
13124;BME280;6627;50.920;12.050;2023-12-04T08:40:32;97815.88;;;5.16;44.32
13124;BME280;6627;50.920;12.050;2023-12-04T08:42:59;97989.16;;;6.18;43.98
13124;BME280;6627;50.920;12.050;2023-12-04T08:45:26;97974.31;;;6.40;43.65
13124;BME280;6627;50.920;12.050;2023-12-04T08:47:53;97828.81;;;5.71;43.67
13124;BME280;6627;50.920;12.050;2023-12-04T08:50:21;97878.56;;;5.68;44.85
13124;BME280;6627;50.920;12.050;2023-12-04T08:52:51;97875.00;;;5.73;44.25
13124;BME280;6627;50.920;12.050;2023-12-04T08:55:19;97839.22;;;5.59;44.09
13124;BME280;6627;50.920;12.050;2023-12-04T08:57:46;97879.50;;;5.77;44.48
13124;BME280;6627;50.920;12.050;2023-12-04T09:00:15;97794.50;;;5.49;44.11
13124;BME280;6627;50.920;12.050;2023-12-04T09:02:42;97845.88;;;5.61;44.21
13124;BME280;6627;50.920;12.050;2023-12-04T09:05:09;97768.44;;;5.30;44.13
13124;BME280;6627;50.920;12.050;2023-12-04T09:07:36;97634.03;;;4.57;44.41
13124;BME280;6627;50.920;12.050;2023-12-04T09:10:05;97817.06;;;5.10;45.64
13124;BME280;6627;50.920;12.050;2023-12-04T09:12:34;97942.50;;;6.09;43.95
13124;BME280;6627;50.920;12.050;2023-12-04T09:15:05;98030.66;;;6.69;43.97
13124;BME280;6627;50.920;12.050;2023-12-04T09:17:32;98039.53;;;7.02;42.77
13124;BME280;6627;50.920;12.050;2023-12-04T09:19:59;97836.00;;;6.13;42.96
13124;BME280;6627;50.920;12.050;2023-12-04T09:22:26;97920.97;;;6.47;43.14
13124;BME280;6627;50.920;12.050;2023-12-04T09:24:54;97923.53;;;6.19;43.66
13124;BME280;6627;50.920;12.050;2023-12-04T09:27:22;97816.78;;;5.68;44.09
13124;BME280;6627;50.920;12.050;2023-12-04T09:29:51;97878.00;;;6.09;43.85
13124;BME280;6627;50.920;12.050;2023-12-04T09:32:18;97975.69;;;6.37;44.55
13124;BME280;6627;50.920;12.050;2023-12-04T09:34:45;97973.34;;;6.49;44.05
13124;BME280;6627;50.920;12.050;2023-12-04T09:37:32;98020.34;;;6.90;43.85
13124;BME280;6627;50.920;12.050;2023-12-04T09:39:59;98055.69;;;7.02;43.81
13124;BME280;6627;50.920;12.050;2023-12-04T09:42:26;97947.50;;;6.67;43.69
13124;BME280;6627;50.920;12.050;2023-12-04T09:44:56;97997.22;;;6.89;43.45
13124;BME280;6627;50.920;12.050;2023-12-04T09:47:26;98228.38;;;7.98;43.37
13124;BME280;6627;50.920;12.050;2023-12-04T09:49:56;97996.59;;;7.24;42.36
13124;BME280;6627;50.920;12.050;2023-12-04T09:52:23;97989.41;;;7.20;42.91
13124;BME280;6627;50.920;12.050;2023-12-04T09:54:50;97957.16;;;7.01;42.37
13124;BME280;6627;50.920;12.050;2023-12-04T09:57:18;97859.50;;;6.54;43.22
13124;BME280;6627;50.920;12.050;2023-12-04T09:59:47;97914.06;;;6.73;43.21
13124;BME280;6627;50.920;12.050;2023-12-04T10:02:16;97885.72;;;6.62;43.18
13124;BME280;6627;50.920;12.050;2023-12-04T10:04:44;97929.78;;;6.66;43.95
13124;BME280;6627;50.920;12.050;2023-12-04T10:07:12;97831.31;;;6.38;43.74
13124;BME280;6627;50.920;12.050;2023-12-04T10:09:40;97748.38;;;5.79;44.13
13124;BME280;6627;50.920;12.050;2023-12-04T10:12:07;97840.63;;;6.26;44.01
13124;BME280;6627;50.920;12.050;2023-12-04T10:14:34;97918.59;;;6.59;44.04
13124;BME280;6627;50.920;12.050;2023-12-04T10:17:15;97962.66;;;6.96;44.34
13124;BME280;6627;50.920;12.050;2023-12-04T10:19:44;97869.44;;;6.40;44.44
13124;BME280;6627;50.920;12.050;2023-12-04T10:22:11;97956.59;;;7.04;44.01
13124;BME280;6627;50.920;12.050;2023-12-04T10:24:40;97907.91;;;6.87;43.96
13124;BME280;6627;50.920;12.050;2023-12-04T10:27:08;98001.88;;;7.16;44.59
13124;BME280;6627;50.920;12.050;2023-12-04T10:29:43;97891.16;;;6.90;43.46
13124;BME280;6627;50.920;12.050;2023-12-04T10:32:10;98168.06;;;8.35;42.77
13124;BME280;6627;50.920;12.050;2023-12-04T10:34:41;98033.63;;;8.15;41.56
13124;BME280;6627;50.920;12.050;2023-12-04T10:37:10;97951.41;;;7.76;42.31
13124;BME280;6627;50.920;12.050;2023-12-04T10:39:47;97872.03;;;7.05;43.65
13124;BME280;6627;50.920;12.050;2023-12-04T10:42:26;97799.53;;;6.95;42.51
13124;BME280;6627;50.920;12.050;2023-12-04T10:44:55;97917.91;;;7.27;43.49
13124;BME280;6627;50.920;12.050;2023-12-04T10:47:24;97966.19;;;7.65;43.07
13124;BME280;6627;50.920;12.050;2023-12-04T10:49:53;97901.16;;;7.44;42.87
13124;BME280;6627;50.920;12.050;2023-12-04T10:52:20;98044.41;;;8.15;42.64
13124;BME280;6627;50.920;12.050;2023-12-04T10:54:49;97965.44;;;8.01;42.62
13124;BME280;6627;50.920;12.050;2023-12-04T10:57:27;97879.16;;;7.65;42.26
13124;BME280;6627;50.920;12.050;2023-12-04T11:00:00;97815.56;;;7.27;42.58
13124;BME280;6627;50.920;12.050;2023-12-04T11:02:33;97955.16;;;8.03;41.96
13124;BME280;6627;50.920;12.050;2023-12-04T11:05:08;97945.84;;;8.09;41.82
13124;BME280;6627;50.920;12.050;2023-12-04T11:07:44;97777.88;;;7.27;42.00
13124;BME280;6627;50.920;12.050;2023-12-04T11:10:14;97975.22;;;8.11;42.33
13124;BME280;6627;50.920;12.050;2023-12-04T11:12:45;97835.09;;;7.47;42.55
13124;BME280;6627;50.920;12.050;2023-12-04T11:15:16;97822.78;;;7.18;43.37
13124;BME280;6627;50.920;12.050;2023-12-04T11:17:49;97785.19;;;7.13;42.99
13124;BME280;6627;50.920;12.050;2023-12-04T11:20:24;97800.84;;;7.11;43.50
13124;BME280;6627;50.920;12.050;2023-12-04T11:22:55;97653.47;;;6.67;42.30
13124;BME280;6627;50.920;12.050;2023-12-04T11:25:23;97844.09;;;7.28;43.38
13124;BME280;6627;50.920;12.050;2023-12-04T11:27:52;97807.00;;;7.25;42.85
13124;BME280;6627;50.920;12.050;2023-12-04T11:30:20;97802.81;;;7.19;42.98
13124;BME280;6627;50.920;12.050;2023-12-04T11:32:49;97735.63;;;7.14;42.45
13124;BME280;6627;50.920;12.050;2023-12-04T11:35:20;97805.50;;;7.19;43.35
13124;BME280;6627;50.920;12.050;2023-12-04T11:37:49;97733.28;;;6.71;43.37
13124;BME280;6627;50.920;12.050;2023-12-04T11:40:16;97695.44;;;6.26;44.20
13124;BME280;6627;50.920;12.050;2023-12-04T11:42:44;97699.81;;;6.64;42.98
13124;BME280;6627;50.920;12.050;2023-12-04T11:45:19;97673.25;;;6.35;43.67
13124;BME280;6627;50.920;12.050;2023-12-04T11:47:53;97713.47;;;6.40;44.02
13124;BME280;6627;50.920;12.050;2023-12-04T11:50:25;97763.59;;;6.91;43.33
13124;BME280;6627;50.920;12.050;2023-12-04T11:52:54;97856.09;;;7.22;43.88
13124;BME280;6627;50.920;12.050;2023-12-04T11:55:22;97695.44;;;6.54;44.18
13124;BME280;6627;50.920;12.050;2023-12-04T11:57:51;97746.63;;;6.76;43.85
13124;BME280;6627;50.920;12.050;2023-12-04T12:00:23;97837.06;;;7.55;42.86
13124;BME280;6627;50.920;12.050;2023-12-04T12:03:02;97738.25;;;6.92;44.05
13124;BME280;6627;50.920;12.050;2023-12-04T12:05:34;97859.31;;;7.47;43.47
13124;BME280;6627;50.920;12.050;2023-12-04T12:08:02;97817.09;;;7.56;42.81
13124;BME280;6627;50.920;12.050;2023-12-04T12:10:30;97676.09;;;6.79;43.19
13124;BME280;6627;50.920;12.050;2023-12-04T12:12:58;97717.09;;;6.99;43.47
13124;BME280;6627;50.920;12.050;2023-12-04T12:15:26;97777.53;;;6.93;44.82
13124;BME280;6627;50.920;12.050;2023-12-04T12:17:53;97683.69;;;6.77;43.47
13124;BME280;6627;50.920;12.050;2023-12-04T12:20:21;97749.72;;;7.33;43.03
13124;BME280;6627;50.920;12.050;2023-12-04T12:22:49;97674.69;;;6.82;43.71
13124;BME280;6627;50.920;12.050;2023-12-04T12:25:17;97627.00;;;6.60;43.44
13124;BME280;6627;50.920;12.050;2023-12-04T12:27:45;97726.28;;;6.98;43.60
13124;BME280;6627;50.920;12.050;2023-12-04T12:30:13;97820.81;;;7.82;42.70
13124;BME280;6627;50.920;12.050;2023-12-04T12:32:40;97774.63;;;7.98;41.50
13124;BME280;6627;50.920;12.050;2023-12-04T12:35:08;97681.19;;;7.40;41.99
13124;BME280;6627;50.920;12.050;2023-12-04T12:37:38;97662.44;;;7.12;42.95
13124;BME280;6627;50.920;12.050;2023-12-04T12:40:09;97641.13;;;7.02;43.24
13124;BME280;6627;50.920;12.050;2023-12-04T12:42:37;97755.53;;;7.63;42.39
13124;BME280;6627;50.920;12.050;2023-12-04T12:45:09;97679.69;;;7.11;43.09
13124;BME280;6627;50.920;12.050;2023-12-04T12:47:39;97799.53;;;7.58;43.52
13124;BME280;6627;50.920;12.050;2023-12-04T12:50:09;97708.31;;;7.07;43.49
13124;BME280;6627;50.920;12.050;2023-12-04T12:52:39;97798.63;;;7.63;43.09
13124;BME280;6627;50.920;12.050;2023-12-04T12:55:08;97771.66;;;7.41;43.74
13124;BME280;6627;50.920;12.050;2023-12-04T12:57:37;97659.66;;;7.03;43.56
13124;BME280;6627;50.920;12.050;2023-12-04T13:00:07;97726.59;;;7.32;43.45
13124;BME280;6627;50.920;12.050;2023-12-04T13:02:35;97748.53;;;7.62;43.28
13124;BME280;6627;50.920;12.050;2023-12-04T13:05:04;97685.09;;;7.33;43.08
13124;BME280;6627;50.920;12.050;2023-12-04T13:07:33;97781.28;;;7.55;43.72
13124;BME280;6627;50.920;12.050;2023-12-04T13:10:00;97731.44;;;7.08;44.71
13124;BME280;6627;50.920;12.050;2023-12-04T13:12:49;97801.56;;;7.53;44.65
13124;BME280;6627;50.920;12.050;2023-12-04T13:15:18;97615.66;;;6.86;44.37